South Charleston, OH (45368)

6:16 AM EDT on October 01, 2016 (GMT -0400)
Walnut Hill | | Change Station

Elev 1078 ft 39.84 °N, 83.73 °W | Updated 1 second ago

Overcast
Overcast
53.4 °F
Feels Like 53.4 °F
N
0.0
Wind Variable Wind from WSW
Gusts 0.0 mph

Today
High -- | Low -- °F
--% Chance of Precip.
Yesterday
High -- | Low -- °F
Precip. -- in
Pressure 30.04 in
Visibility 7.0 miles
Clouds Mostly Cloudy 4100 ft
Overcast 9500 ft
Dew Point 53 °F
Humidity 98%
Rainfall 0.00 in
Snow Depth Not available.
7:31 AM 7:16 PM
New Moon, 0% visible
METAR KSGH 010956Z AUTO 15003KT 7SM BKN041 OVC095 11/11 A3004 RMK AO2 SLP173 T01110111
Pressure 30.04 in
Visibility 7.0 miles
Clouds Mostly Cloudy 4100 ft
Overcast 9500 ft
Dew Point 53 °F
Humidity 98%
Rainfall 0.00 in
Snow Depth Not available.
7:31 AM 7:16 PM
New Moon, 0% visible
METAR KSGH 010956Z AUTO 15003KT 7SM BKN041 OVC095 11/11 A3004 RMK AO2 SLP173 T01110111

10-Day Weather Forecast

Almanac

Astronomy

Oct. 01, 2016 Rise Set
Actual Time
Civil Twilight
Nautical Twilight
Astronomical Twilight
Moon
Length of Visible Light
Length of Day
Tomorrow will be .
, % of the Moon is Illuminated

Today's Extremes

State Highs State Lows

Community

WunderPhotos

Upload Photos

1,942,908 photos uploaded!

WunderBlog® & News

Nearby

Air Quality

  Air Quality AQ Index Pollutant
Not available.

Snow Depth

Station Depth Elevation

Earthquake Activity

City Distance Mag. Time & Date
Minimum magnitude displayed is 2.5.

Coastal Water Temperatures

Place Temperature

Stations

Nearby Weather Stations

Station Location Temp. Windchill Dew Point Humidity Wind Precip. Elev Updated Type
                   

Watches & Warnings

There are currently no watches in effect.